createdAt,value
2023-04-27T00:01:39.865Z,5.80
2023-04-27T00:04:07.475Z,5.80
2023-04-27T00:06:34.936Z,5.90
2023-04-27T00:09:01.820Z,5.90
2023-04-27T00:11:28.751Z,6.00
2023-04-27T00:13:56.475Z,6.00
2023-04-27T00:16:23.454Z,6.00
2023-04-27T00:18:50.366Z,5.90
2023-04-27T00:21:17.360Z,5.50
2023-04-27T00:23:44.683Z,5.20
2023-04-27T00:26:11.670Z,5.00
2023-04-27T00:28:38.563Z,5.00
2023-04-27T00:31:05.929Z,4.90
2023-04-27T00:33:32.804Z,4.80
2023-04-27T00:36:01.671Z,4.80
2023-04-27T00:38:29.401Z,5.00
2023-04-27T00:41:07.514Z,5.20
2023-04-27T00:43:45.609Z,5.30
2023-04-27T00:46:14.202Z,5.30
2023-04-27T00:48:41.853Z,5.40
2023-04-27T00:51:08.842Z,5.40
2023-04-27T00:53:36.923Z,5.30
2023-04-27T00:56:06.500Z,5.00
2023-04-27T00:58:33.370Z,4.80
2023-04-27T01:01:00.864Z,4.70
2023-04-27T01:03:28.559Z,4.80
2023-04-27T01:05:56.849Z,4.70
2023-04-27T01:08:24.617Z,4.70
2023-04-27T01:10:51.795Z,4.60
2023-04-27T01:13:18.922Z,4.50
2023-04-27T01:15:45.718Z,4.30
2023-04-27T01:18:12.744Z,4.40
2023-04-27T01:20:39.685Z,4.60
2023-04-27T01:23:06.678Z,4.80
2023-04-27T01:25:33.568Z,5.00
2023-04-27T01:28:00.388Z,5.20
2023-04-27T01:30:28.567Z,5.20
2023-04-27T01:32:55.924Z,5.30
2023-04-27T01:35:22.821Z,5.40
2023-04-27T01:37:49.678Z,5.50
2023-04-27T01:40:16.696Z,5.60
2023-04-27T01:42:43.538Z,5.60
2023-04-27T01:45:11.334Z,5.70
2023-04-27T01:47:38.257Z,5.80
2023-04-27T01:50:06.279Z,5.80
2023-04-27T01:52:33.121Z,5.80
2023-04-27T01:54:59.991Z,5.80
2023-04-27T01:57:26.852Z,5.70
2023-04-27T01:59:53.779Z,5.50
2023-04-27T02:02:20.828Z,5.40
2023-04-27T02:04:47.859Z,5.30
2023-04-27T02:07:14.744Z,5.20
2023-04-27T02:09:41.904Z,4.60
2023-04-27T02:12:08.742Z,4.20
2023-04-27T02:14:35.681Z,4.00
2023-04-27T02:17:02.519Z,4.00
2023-04-27T02:19:29.378Z,4.10
2023-04-27T02:21:56.349Z,4.20
2023-04-27T02:24:23.409Z,4.40
2023-04-27T02:26:50.267Z,4.40
2023-04-27T02:29:17.471Z,4.20
2023-04-27T02:31:44.972Z,4.20
2023-04-27T02:34:12.108Z,4.10
2023-04-27T02:36:38.940Z,4.20
2023-04-27T02:39:05.784Z,4.40
2023-04-27T02:41:32.968Z,4.60
2023-04-27T02:43:59.852Z,4.90
2023-04-27T02:46:27.477Z,4.90
2023-04-27T02:48:55.799Z,5.10
2023-04-27T02:51:22.715Z,5.00
2023-04-27T02:53:49.747Z,5.00
2023-04-27T02:56:16.684Z,5.10
2023-04-27T02:58:44.848Z,5.20
2023-04-27T03:01:11.907Z,5.40
2023-04-27T03:03:39.113Z,5.40
2023-04-27T03:06:06.455Z,5.40
2023-04-27T03:08:33.404Z,5.40
2023-04-27T03:11:00.463Z,5.50
2023-04-27T03:13:28.223Z,5.50
2023-04-27T03:15:55.119Z,5.40
2023-04-27T03:18:22.100Z,5.50
2023-04-27T03:20:48.990Z,5.40
2023-04-27T03:23:16.041Z,5.40
2023-04-27T03:25:42.933Z,5.30
2023-04-27T03:28:09.899Z,5.30
2023-04-27T03:30:40.057Z,5.40
2023-04-27T03:33:07.042Z,5.30
2023-04-27T03:35:33.912Z,5.30
2023-04-27T03:38:00.877Z,5.30
2023-04-27T03:40:27.866Z,5.40
2023-04-27T03:42:54.694Z,5.30
2023-04-27T03:45:22.482Z,5.30
2023-04-27T03:47:49.408Z,5.30
2023-04-27T03:50:16.380Z,5.30
2023-04-27T03:52:43.238Z,5.40
2023-04-27T03:55:10.712Z,5.40
2023-04-27T03:57:37.545Z,5.30
2023-04-27T04:00:07.883Z,5.30
2023-04-27T04:02:34.826Z,5.20
2023-04-27T04:05:01.711Z,5.20
2023-04-27T04:07:28.534Z,5.10
2023-04-27T04:09:55.396Z,5.10
2023-04-27T04:12:22.236Z,5.10
2023-04-27T04:14:49.157Z,5.10
2023-04-27T04:17:16.397Z,5.10
2023-04-27T04:19:43.209Z,5.10
2023-04-27T04:22:10.051Z,5.10
2023-04-27T04:24:37.635Z,5.10
2023-04-27T04:27:04.594Z,5.20
2023-04-27T04:29:31.580Z,5.20
2023-04-27T04:31:58.499Z,5.20
2023-04-27T04:34:25.315Z,5.20
2023-04-27T04:36:52.269Z,5.20
2023-04-27T04:39:22.385Z,5.30
2023-04-27T04:41:49.966Z,5.30
2023-04-27T04:44:16.987Z,5.40
2023-04-27T04:46:44.436Z,5.40
2023-04-27T04:49:12.119Z,5.40
2023-04-27T04:51:43.451Z,5.40
2023-04-27T04:54:10.476Z,5.40
2023-04-27T04:56:37.497Z,5.40
2023-04-27T04:59:04.431Z,5.30
2023-04-27T05:01:31.499Z,5.30
2023-04-27T05:03:58.607Z,5.30
2023-04-27T05:06:26.461Z,5.40
2023-04-27T05:08:53.312Z,5.40
2023-04-27T05:11:20.167Z,5.40
2023-04-27T05:13:47.997Z,5.40
2023-04-27T05:16:15.473Z,5.40
2023-04-27T05:18:42.385Z,5.40
2023-04-27T05:21:16.371Z,5.20
2023-04-27T05:23:43.284Z,5.10
2023-04-27T05:26:14.979Z,5.20
2023-04-27T05:28:41.874Z,5.30
2023-04-27T05:31:09.086Z,5.20
2023-04-27T05:33:36.061Z,5.20
2023-04-27T05:36:02.986Z,5.30
2023-04-27T05:38:30.094Z,5.40
2023-04-27T05:40:57.796Z,5.40
2023-04-27T05:43:25.622Z,5.30
2023-04-27T05:45:53.463Z,5.00
2023-04-27T05:48:20.525Z,5.00
2023-04-27T05:50:47.420Z,5.20
2023-04-27T05:53:14.244Z,5.20
2023-04-27T05:55:41.060Z,5.30
2023-04-27T05:58:09.233Z,5.30
2023-04-27T06:00:36.857Z,5.40
2023-04-27T06:03:04.028Z,5.20
2023-04-27T06:05:31.252Z,5.10
2023-04-27T06:07:58.247Z,5.10
2023-04-27T06:10:25.050Z,5.00
2023-04-27T06:12:51.942Z,4.90
2023-04-27T06:15:19.292Z,4.70
2023-04-27T06:17:46.320Z,4.50
2023-04-27T06:20:13.395Z,4.40
2023-04-27T06:22:40.407Z,4.30
2023-04-27T06:25:07.833Z,4.30
2023-04-27T06:27:35.294Z,4.40
2023-04-27T06:30:02.228Z,4.30
2023-04-27T06:32:29.164Z,4.40
2023-04-27T06:34:56.637Z,4.40
2023-04-27T06:37:23.584Z,4.60
2023-04-27T06:39:50.412Z,4.50
2023-04-27T06:42:17.306Z,4.50
2023-04-27T06:44:44.183Z,4.50
2023-04-27T06:47:11.231Z,4.60
2023-04-27T06:49:38.080Z,4.70
2023-04-27T06:52:05.793Z,4.80
2023-04-27T06:54:32.629Z,4.90
2023-04-27T06:56:59.486Z,5.00
2023-04-27T06:59:27.334Z,5.10
2023-04-27T07:01:54.377Z,5.30
2023-04-27T07:04:21.372Z,5.30
2023-04-27T07:06:48.340Z,5.40
2023-04-27T07:09:26.632Z,5.50
2023-04-27T07:11:55.146Z,5.70
2023-04-27T07:14:22.395Z,5.80
2023-04-27T07:16:49.215Z,5.90
2023-04-27T07:19:16.204Z,6.00
2023-04-27T07:21:43.172Z,6.10
2023-04-27T07:24:10.216Z,6.20
2023-04-27T07:26:37.663Z,6.30
2023-04-27T07:29:14.425Z,6.50
2023-04-27T07:31:46.524Z,6.50
2023-04-27T07:34:13.560Z,6.70
2023-04-27T07:36:40.384Z,6.70
2023-04-27T07:39:08.080Z,6.80
2023-04-27T07:41:35.580Z,6.90
2023-04-27T07:44:02.657Z,7.00
2023-04-27T07:46:31.882Z,7.10
2023-04-27T07:49:00.048Z,7.20
2023-04-27T07:51:28.826Z,7.30
2023-04-27T07:53:56.491Z,7.40
2023-04-27T07:56:23.334Z,7.50
2023-04-27T07:58:50.216Z,7.60
2023-04-27T08:01:19.531Z,7.70
2023-04-27T08:03:48.077Z,7.80
2023-04-27T08:06:15.605Z,7.80
2023-04-27T08:08:43.182Z,7.90
2023-04-27T08:11:13.168Z,8.00
2023-04-27T08:13:40.105Z,8.10
2023-04-27T08:16:07.284Z,8.20
2023-04-27T08:18:34.562Z,8.20
2023-04-27T08:21:01.484Z,8.30
2023-04-27T08:23:29.452Z,8.30
2023-04-27T08:25:56.521Z,8.40
2023-04-27T08:28:23.507Z,8.50
2023-04-27T08:30:50.545Z,8.50
2023-04-27T08:33:17.448Z,8.50
2023-04-27T08:35:44.265Z,8.60
2023-04-27T08:38:11.302Z,8.70
2023-04-27T08:40:45.855Z,8.80
2023-04-27T08:43:12.855Z,8.90
2023-04-27T08:45:47.496Z,8.90
2023-04-27T08:48:14.526Z,9.00
2023-04-27T08:50:44.754Z,9.10
2023-04-27T08:53:22.248Z,9.20
2023-04-27T08:55:50.251Z,9.20
2023-04-27T08:58:17.184Z,9.20
2023-04-27T09:00:45.865Z,9.30
2023-04-27T09:03:39.336Z,9.40
2023-04-27T09:06:07.384Z,9.50
2023-04-27T09:08:51.034Z,9.60
2023-04-27T09:11:32.311Z,9.70
2023-04-27T09:14:00.480Z,9.70
2023-04-27T09:16:29.654Z,9.70
2023-04-27T09:18:58.484Z,9.80
2023-04-27T09:21:27.789Z,9.80
2023-04-27T09:23:55.977Z,9.90
2023-04-27T09:26:27.602Z,10.00
2023-04-27T09:28:57.743Z,10.20
2023-04-27T09:31:35.214Z,10.40
2023-04-27T09:34:02.925Z,10.40
2023-04-27T09:36:32.782Z,10.40
2023-04-27T09:39:06.861Z,10.50
2023-04-27T09:41:34.072Z,10.60
2023-04-27T09:44:02.007Z,10.70
2023-04-27T09:46:30.791Z,10.60
2023-04-27T09:48:58.257Z,10.60
2023-04-27T09:51:25.273Z,10.70
2023-04-27T09:53:55.901Z,10.90
2023-04-27T09:56:34.810Z,11.00
2023-04-27T09:59:49.466Z,11.20
2023-04-27T10:05:07.874Z,11.40
2023-04-27T10:07:35.747Z,11.50
2023-04-27T10:10:04.406Z,11.60
2023-04-27T10:12:36.576Z,11.60
2023-04-27T10:15:17.495Z,11.80
2023-04-27T10:17:50.765Z,12.00
2023-04-27T10:20:17.865Z,12.30
2023-04-27T10:22:50.198Z,12.40
2023-04-27T10:25:25.778Z,12.50
2023-04-27T10:27:58.170Z,12.40
2023-04-27T10:30:31.298Z,12.30
2023-04-27T10:33:00.012Z,12.20
2023-04-27T10:35:33.702Z,12.30
2023-04-27T10:38:08.464Z,12.50
2023-04-27T10:40:36.454Z,12.90
2023-04-27T10:43:30.826Z,13.20
2023-04-27T10:46:12.464Z,13.20
2023-04-27T10:48:40.958Z,13.40
2023-04-27T10:51:07.966Z,13.60
2023-04-27T10:53:36.042Z,13.60
2023-04-27T10:56:06.664Z,13.70
2023-04-27T10:58:45.271Z,13.90
2023-04-27T11:01:25.090Z,14.20
2023-04-27T11:03:59.031Z,14.50
2023-04-27T11:06:26.556Z,14.50
2023-04-27T11:08:53.652Z,14.80
2023-04-27T11:11:20.837Z,15.30
2023-04-27T11:13:53.031Z,15.70
2023-04-27T11:16:20.234Z,15.70
2023-04-27T11:18:47.270Z,15.70
2023-04-27T11:21:16.715Z,15.50
2023-04-27T11:23:43.793Z,16.00
2023-04-27T11:26:14.845Z,16.40
2023-04-27T11:28:57.872Z,16.80
2023-04-27T11:31:25.633Z,16.90
2023-04-27T11:33:53.583Z,16.40
2023-04-27T11:36:23.032Z,15.80
2023-04-27T11:38:49.945Z,15.10
2023-04-27T11:41:17.693Z,14.80
2023-04-27T11:43:51.305Z,14.60
2023-04-27T11:46:22.330Z,14.20
2023-04-27T11:48:49.528Z,14.00
2023-04-27T11:51:16.462Z,14.10
2023-04-27T11:53:48.341Z,14.60
2023-04-27T11:56:15.236Z,15.20
2023-04-27T11:58:44.481Z,15.70
2023-04-27T12:01:13.211Z,16.20
2023-04-27T12:03:40.805Z,16.60
2023-04-27T12:06:27.680Z,16.80
2023-04-27T12:08:56.609Z,16.90
2023-04-27T12:11:27.959Z,16.80
2023-04-27T12:13:56.101Z,17.00
2023-04-27T12:16:23.384Z,16.90
2023-04-27T12:18:50.789Z,17.00
2023-04-27T12:21:18.022Z,17.40
2023-04-27T12:23:45.096Z,17.60
2023-04-27T12:26:14.425Z,17.70
2023-04-27T12:28:42.160Z,17.50
2023-04-27T12:31:09.096Z,17.70
2023-04-27T12:33:36.199Z,17.90
2023-04-27T12:36:03.356Z,18.30
2023-04-27T12:38:30.337Z,18.40
2023-04-27T12:40:58.671Z,18.30
2023-04-27T12:43:28.554Z,18.10
2023-04-27T12:45:55.704Z,18.10
2023-04-27T12:48:23.608Z,18.10
2023-04-27T12:50:50.926Z,18.20
2023-04-27T12:53:17.878Z,18.00
2023-04-27T12:55:44.974Z,18.20
2023-04-27T12:58:11.890Z,18.60
2023-04-27T13:00:38.762Z,18.60
2023-04-27T13:03:06.934Z,18.50
2023-04-27T13:05:33.915Z,18.20
2023-04-27T13:08:00.807Z,17.20
2023-04-27T13:10:29.618Z,17.30
2023-04-27T13:12:56.523Z,17.50
2023-04-27T13:15:23.405Z,18.10
2023-04-27T13:17:53.249Z,18.10
2023-04-27T13:20:20.927Z,17.70
2023-04-27T13:22:48.256Z,17.60
2023-04-27T13:25:16.609Z,18.10
2023-04-27T13:27:43.706Z,18.10
2023-04-27T13:30:11.852Z,18.00
2023-04-27T13:32:38.874Z,18.40
2023-04-27T13:35:06.256Z,19.10
2023-04-27T13:37:33.120Z,19.20
2023-04-27T13:40:00.047Z,18.90
2023-04-27T13:42:29.513Z,19.10
2023-04-27T13:44:59.728Z,19.40
2023-04-27T13:47:26.981Z,19.60
2023-04-27T13:49:53.889Z,19.60
2023-04-27T13:52:21.002Z,19.40
2023-04-27T13:54:47.917Z,19.20
2023-04-27T13:57:14.830Z,18.90
2023-04-27T13:59:41.762Z,18.60
2023-04-27T14:02:09.042Z,18.50
2023-04-27T14:04:36.085Z,18.20
2023-04-27T14:07:03.050Z,18.10
2023-04-27T14:09:32.515Z,17.90
2023-04-27T14:12:00.287Z,17.70
2023-04-27T14:14:27.372Z,17.50
2023-04-27T14:16:54.447Z,17.30
2023-04-27T14:19:21.622Z,17.30
2023-04-27T14:21:52.671Z,17.20
2023-04-27T14:24:19.740Z,17.20
2023-04-27T14:26:47.676Z,17.30
2023-04-27T14:29:15.566Z,17.40
2023-04-27T14:31:43.066Z,17.60
2023-04-27T14:34:10.936Z,17.80
2023-04-27T14:36:37.917Z,17.90
2023-04-27T14:39:06.715Z,18.30
2023-04-27T14:41:33.619Z,19.00
2023-04-27T14:44:00.491Z,19.50
2023-04-27T14:46:28.344Z,19.50
2023-04-27T14:48:55.331Z,19.40
2023-04-27T14:51:22.837Z,19.20
2023-04-27T14:53:49.644Z,19.00
2023-04-27T14:56:16.522Z,19.30
2023-04-27T14:58:43.453Z,19.00
2023-04-27T15:01:10.838Z,18.80
2023-04-27T15:03:38.555Z,18.60
2023-04-27T15:06:05.918Z,18.40
2023-04-27T15:08:34.270Z,18.20
2023-04-27T15:11:03.801Z,18.00
2023-04-27T15:13:30.566Z,18.20
2023-04-27T15:15:58.725Z,18.70
2023-04-27T15:18:26.007Z,19.00
2023-04-27T15:20:57.283Z,18.80
2023-04-27T15:23:42.702Z,18.40
2023-04-27T15:26:09.987Z,18.20
2023-04-27T15:28:37.533Z,18.10
2023-04-27T15:31:04.493Z,18.00
2023-04-27T15:33:31.473Z,17.90
2023-04-27T15:35:59.137Z,17.50
2023-04-27T15:38:26.668Z,16.70
2023-04-27T15:40:53.514Z,16.10
2023-04-27T15:43:21.729Z,15.90
2023-04-27T15:45:48.868Z,15.70
2023-04-27T15:48:16.202Z,15.40
2023-04-27T15:50:45.231Z,15.50
2023-04-27T15:53:12.176Z,15.40
2023-04-27T15:55:39.118Z,15.40
2023-04-27T15:58:06.164Z,15.30
2023-04-27T16:00:35.111Z,15.10
2023-04-27T16:03:02.327Z,15.10
2023-04-27T16:05:29.510Z,15.10
2023-04-27T16:07:56.436Z,15.10
2023-04-27T16:10:23.287Z,15.00
2023-04-27T16:12:50.491Z,15.10
2023-04-27T16:15:17.545Z,15.00
2023-04-27T16:17:44.377Z,14.60
2023-04-27T16:20:12.041Z,14.40
2023-04-27T16:22:38.922Z,14.50
2023-04-27T16:25:10.871Z,14.60
2023-04-27T16:27:38.903Z,14.80
2023-04-27T16:30:07.414Z,14.90
2023-04-27T16:32:35.510Z,15.00
2023-04-27T16:35:03.125Z,15.00
2023-04-27T16:37:30.336Z,15.00
2023-04-27T16:40:01.349Z,15.00
2023-04-27T16:42:28.737Z,15.10
2023-04-27T16:44:55.833Z,15.10
2023-04-27T16:47:22.858Z,15.00
2023-04-27T16:49:49.758Z,14.90
2023-04-27T16:52:17.993Z,14.80
2023-04-27T16:54:44.904Z,14.70
2023-04-27T16:57:13.215Z,14.60
2023-04-27T16:59:40.145Z,14.50
2023-04-27T17:02:22.964Z,14.40
2023-04-27T17:04:51.289Z,14.40
2023-04-27T17:07:18.550Z,14.50
2023-04-27T17:09:45.390Z,14.40
2023-04-27T17:12:13.712Z,14.30
2023-04-27T17:14:40.958Z,14.20
2023-04-27T17:17:07.959Z,14.20
2023-04-27T17:19:34.955Z,14.20
2023-04-27T17:22:01.961Z,14.10
2023-04-27T17:24:28.874Z,14.10
2023-04-27T17:26:55.809Z,14.00
2023-04-27T17:29:22.802Z,13.90
2023-04-27T17:31:50.807Z,13.80
2023-04-27T17:34:17.811Z,13.90
2023-04-27T17:36:45.927Z,13.80
2023-04-27T17:39:13.692Z,13.70
2023-04-27T17:41:41.170Z,13.60
2023-04-27T17:44:08.114Z,13.60
2023-04-27T17:46:35.282Z,13.50
2023-04-27T17:49:02.307Z,13.40
2023-04-27T17:51:29.260Z,13.40
2023-04-27T17:53:56.315Z,13.30
2023-04-27T17:56:23.567Z,13.30
2023-04-27T17:58:50.867Z,13.20
2023-04-27T18:01:17.787Z,13.10
2023-04-27T18:03:44.927Z,13.00
2023-04-27T18:06:11.833Z,13.00
2023-04-27T18:08:38.653Z,13.00
2023-04-27T18:11:06.672Z,13.00
2023-04-27T18:13:33.662Z,12.80
2023-04-27T18:16:00.590Z,12.70
2023-04-27T18:18:28.109Z,12.50
2023-04-27T18:20:55.048Z,12.40
2023-04-27T18:23:21.987Z,12.40
2023-04-27T18:25:49.320Z,12.40
2023-04-27T18:28:16.452Z,12.30
2023-04-27T18:30:43.410Z,12.20
2023-04-27T18:33:10.389Z,12.10
2023-04-27T18:35:37.378Z,12.00
2023-04-27T18:38:04.289Z,11.90
2023-04-27T18:40:32.812Z,11.70
2023-04-27T18:42:59.664Z,11.80
2023-04-27T18:45:26.714Z,11.70
2023-04-27T18:47:53.814Z,11.70
2023-04-27T18:50:20.916Z,11.60
2023-04-27T18:52:47.869Z,11.60
2023-04-27T18:55:16.520Z,11.50
2023-04-27T18:57:43.632Z,11.50
2023-04-27T19:00:11.703Z,11.40
2023-04-27T19:02:38.815Z,11.40
2023-04-27T19:05:15.367Z,11.40
2023-04-27T19:07:42.360Z,11.30
2023-04-27T19:10:09.719Z,11.30
2023-04-27T19:12:36.750Z,11.30
2023-04-27T19:15:04.775Z,11.20
2023-04-27T19:17:31.848Z,11.10
2023-04-27T19:19:58.856Z,11.10
2023-04-27T19:22:27.111Z,11.10
2023-04-27T19:24:54.086Z,11.10
2023-04-27T19:27:20.983Z,11.00
2023-04-27T19:29:50.777Z,11.00
2023-04-27T19:32:18.116Z,11.00
2023-04-27T19:34:45.504Z,11.00
2023-04-27T19:37:12.834Z,11.10
2023-04-27T19:39:39.789Z,11.10
2023-04-27T19:42:06.733Z,11.00
2023-04-27T19:44:33.727Z,10.90
2023-04-27T19:47:00.727Z,10.90
2023-04-27T19:49:32.703Z,10.90
2023-04-27T19:52:03.312Z,11.00
2023-04-27T19:54:30.235Z,11.00
2023-04-27T19:56:57.125Z,10.90
2023-04-27T19:59:24.145Z,10.90
2023-04-27T20:01:51.217Z,10.90
2023-04-27T20:04:18.742Z,10.90
2023-04-27T20:06:46.367Z,10.80
2023-04-27T20:09:13.366Z,10.70
2023-04-27T20:11:40.399Z,10.60
2023-04-27T20:14:07.273Z,10.60
2023-04-27T20:16:34.186Z,10.60
2023-04-27T20:19:01.145Z,10.60
2023-04-27T20:21:28.162Z,10.60
2023-04-27T20:23:55.152Z,10.60
2023-04-27T20:26:22.587Z,10.60
2023-04-27T20:28:49.631Z,10.60
2023-04-27T20:31:16.755Z,10.60
2023-04-27T20:33:43.664Z,10.60
2023-04-27T20:36:17.195Z,10.50
2023-04-27T20:38:46.150Z,10.50
2023-04-27T20:41:13.056Z,10.50
2023-04-27T20:43:40.279Z,10.50
2023-04-27T20:46:11.226Z,10.50
2023-04-27T20:48:38.295Z,10.40
2023-04-27T20:51:05.307Z,10.40
2023-04-27T20:53:32.185Z,10.30
2023-04-27T20:55:59.270Z,10.20
2023-04-27T20:58:26.283Z,10.10
2023-04-27T21:00:53.191Z,10.10
2023-04-27T21:03:20.321Z,10.10
2023-04-27T21:05:50.325Z,10.10
2023-04-27T21:08:17.599Z,10.10
2023-04-27T21:10:44.625Z,10.00
2023-04-27T21:13:11.552Z,10.10
2023-04-27T21:15:38.652Z,10.00
2023-04-27T21:18:07.866Z,10.10
2023-04-27T21:20:39.195Z,10.10
2023-04-27T21:23:06.055Z,10.00
2023-04-27T21:25:32.918Z,10.00
2023-04-27T21:27:59.878Z,10.00
2023-04-27T21:30:26.974Z,10.00
2023-04-27T21:32:53.903Z,10.10
2023-04-27T21:35:21.293Z,10.00
2023-04-27T21:37:48.102Z,10.00
2023-04-27T21:40:15.073Z,10.00
2023-04-27T21:42:42.082Z,10.10
2023-04-27T21:45:09.454Z,10.10
2023-04-27T21:47:36.683Z,10.10
2023-04-27T21:50:03.979Z,10.10
2023-04-27T21:52:30.864Z,10.10
2023-04-27T21:54:57.980Z,10.10
2023-04-27T21:57:25.217Z,10.10
2023-04-27T21:59:52.120Z,10.00
2023-04-27T22:02:19.012Z,10.00
2023-04-27T22:04:46.103Z,10.00
2023-04-27T22:07:13.096Z,10.00
2023-04-27T22:09:39.958Z,9.90
2023-04-27T22:12:07.081Z,9.80
2023-04-27T22:14:33.990Z,9.80
2023-04-27T22:17:02.036Z,9.80
2023-04-27T22:19:28.983Z,9.90
2023-04-27T22:21:56.065Z,10.00
2023-04-27T22:24:23.705Z,10.00
2023-04-27T22:26:50.929Z,10.00
2023-04-27T22:29:18.119Z,9.90
2023-04-27T22:31:45.595Z,9.90
2023-04-27T22:34:13.394Z,9.90
2023-04-27T22:36:40.660Z,9.80
2023-04-27T22:39:08.170Z,9.80
2023-04-27T22:41:35.246Z,9.90
2023-04-27T22:44:02.160Z,9.80
2023-04-27T22:46:29.132Z,9.90
2023-04-27T22:48:56.646Z,9.90
2023-04-27T22:51:23.996Z,9.80
2023-04-27T22:53:50.942Z,9.80
2023-04-27T22:56:17.791Z,9.70
2023-04-27T22:58:44.802Z,9.70
2023-04-27T23:01:11.799Z,9.60
2023-04-27T23:03:39.051Z,9.60
2023-04-27T23:06:07.417Z,9.60
2023-04-27T23:08:34.238Z,9.60
2023-04-27T23:11:02.743Z,9.60
2023-04-27T23:13:29.711Z,9.60
2023-04-27T23:15:56.801Z,9.60
2023-04-27T23:18:23.774Z,9.60
2023-04-27T23:20:57.035Z,9.50
2023-04-27T23:23:24.004Z,9.40
2023-04-27T23:25:51.172Z,9.40
2023-04-27T23:28:18.001Z,9.40
2023-04-27T23:30:52.633Z,9.50
2023-04-27T23:33:19.557Z,9.40
2023-04-27T23:35:46.405Z,9.50
2023-04-27T23:38:13.261Z,9.50
2023-04-27T23:40:40.097Z,9.50
2023-04-27T23:43:07.464Z,9.50
2023-04-27T23:45:34.308Z,9.50
2023-04-27T23:48:01.259Z,9.50
2023-04-27T23:50:28.114Z,9.60
2023-04-27T23:52:55.091Z,9.60
2023-04-27T23:55:22.031Z,9.60
2023-04-27T23:57:52.532Z,9.50
